Private Wetterstation Sandau
Wetterdaten: Freitag, 16.03.2012
Datum Zeit Temp. A. Feuchte A. Luftdruck Regen Wind Richtung Richtung Taupunkt Windchill
16.03.2012 00:02 4,1 C 80 % 1025,8 hPa 0,0 l/m 0,0 km/h (0 Bft) SO 135 1,0 C 4,1 C
16.03.2012 00:07 4,1 C 80 % 1025,7 hPa 0,0 l/m 1,4 km/h (1 Bft) SO 135 1,0 C 4,1 C
16.03.2012 00:12 4,1 C 80 % 1025,6 hPa 0,0 l/m 0,0 km/h (0 Bft) SO 135 1,0 C 4,1 C
16.03.2012 00:17 4,1 C 80 % 1025,6 hPa 0,0 l/m 0,0 km/h (0 Bft) SO 135 1,0 C 4,1 C
16.03.2012 00:22 3,9 C 80 % 1025,6 hPa 0,0 l/m 2,2 km/h (1 Bft) SO 135 0,8 C 3,9 C
16.03.2012 00:27 3,9 C 80 % 1025,6 hPa 0,0 l/m 2,5 km/h (1 Bft) SO 135 0,8 C 3,9 C
16.03.2012 00:32 3,9 C 81 % 1025,6 hPa 0,0 l/m 0,0 km/h (0 Bft) SO 135 0,9 C 3,9 C
16.03.2012 00:37 3,8 C 81 % 1025,3 hPa 0,0 l/m 2,9 km/h (1 Bft) SO 135 0,8 C 3,8 C
16.03.2012 00:42 3,8 C 81 % 1025,3 hPa 0,0 l/m 0,0 km/h (0 Bft) SO 135 0,8 C 3,8 C
16.03.2012 00:47 3,8 C 81 % 1025,4 hPa 0,0 l/m 1,1 km/h (1 Bft) SO 135 0,8 C 3,8 C
16.03.2012 00:52 3,8 C 82 % 1025,4 hPa 0,0 l/m 0,0 km/h (0 Bft) SO 135 1,0 C 3,8 C
16.03.2012 00:57 3,8 C 82 % 1025,3 hPa 0,0 l/m 0,0 km/h (0 Bft) SO 135 1,0 C 3,8 C
16.03.2012 01:02 3,6 C 82 % 1025,3 hPa 0,0 l/m 1,1 km/h (1 Bft) SO 135 0,8 C 3,6 C
16.03.2012 01:07 3,6 C 82 % 1025,3 hPa 0,0 l/m 0,0 km/h (0 Bft) SO 135 0,8 C 3,6 C
16.03.2012 01:12 3,5 C 82 % 1025,2 hPa 0,0 l/m 0,0 km/h (0 Bft) SO 135 0,7 C 3,5 C
16.03.2012 01:17 3,4 C 82 % 1025,1 hPa 0,0 l/m 0,0 km/h (0 Bft) SO 135 0,6 C 3,4 C
16.03.2012 01:22 3,4 C 82 % 1025,1 hPa 0,0 l/m 0,0 km/h (0 Bft) SO 135 0,6 C 3,4 C
16.03.2012 01:27 3,3 C 83 % 1025,0 hPa 0,0 l/m 1,1 km/h (1 Bft) SO 135 0,7 C 3,3 C
16.03.2012 01:32 3,3 C 83 % 1024,9 hPa 0,0 l/m 0,0 km/h (0 Bft) SO 135 0,7 C 3,3 C
16.03.2012 01:37 3,2 C 83 % 1024,8 hPa 0,0 l/m 0,0 km/h (0 Bft) SO 135 0,6 C 3,2 C
16.03.2012 01:42 3,2 C 83 % 1024,8 hPa 0,0 l/m 0,0 km/h (0 Bft) SO 135 0,6 C 3,2 C
16.03.2012 01:47 3,0 C 83 % 1024,9 hPa 0,0 l/m 0,0 km/h (0 Bft) SO 135 0,4 C 3,0 C
16.03.2012 01:52 2,9 C 83 % 1024,8 hPa 0,0 l/m 0,0 km/h (0 Bft) SO 135 0,3 C 2,9 C
16.03.2012 01:57 2,9 C 84 % 1024,6 hPa 0,0 l/m 0,0 km/h (0 Bft) SO 135 0,5 C 2,9 C
16.03.2012 02:02 2,9 C 84 % 1024,7 hPa 0,0 l/m 0,0 km/h (0 Bft) SO 135 0,5 C 2,9 C
16.03.2012 02:07 2,8 C 84 % 1024,7 hPa 0,0 l/m 1,4 km/h (1 Bft) SO 135 0,4 C 2,8 C
16.03.2012 02:12 2,8 C 84 % 1024,5 hPa 0,0 l/m 1,1 km/h (1 Bft) SO 135 0,4 C 2,8 C
16.03.2012 02:17 2,7 C 84 % 1024,4 hPa 0,0 l/m 0,0 km/h (0 Bft) SO 135 0,3 C 2,7 C
16.03.2012 02:22 2,8 C 84 % 1024,4 hPa 0,0 l/m 0,0 km/h (0 Bft) SO 135 0,4 C 2,8 C
16.03.2012 02:27 2,7 C 84 % 1024,4 hPa 0,0 l/m 0,0 km/h (0 Bft) SO 135 0,3 C 2,7 C
16.03.2012 02:32 2,6 C 84 % 1024,4 hPa 0,0 l/m 0,0 km/h (0 Bft) SO 135 0,2 C 2,6 C
16.03.2012 02:37 2,6 C 84 % 1024,4 hPa 0,0 l/m 0,0 km/h (0 Bft) SO 135 0,2 C 2,6 C
16.03.2012 02:42 2,6 C 84 % 1024,3 hPa 0,0 l/m 0,0 km/h (0 Bft) SO 135 0,2 C 2,6 C
16.03.2012 02:47 2,5 C 84 % 1024,1 hPa 0,0 l/m 0,0 km/h (0 Bft) SO 135 0,1 C 2,5 C
16.03.2012 02:52 2,4 C 84 % 1024,1 hPa 0,0 l/m 0,0 km/h (0 Bft) SO 135 -0,0 C 2,4 C
16.03.2012 02:57 2,4 C 84 % 1024,1 hPa 0,0 l/m 0,0 km/h (0 Bft) SO 135 -0,0 C 2,4 C
16.03.2012 03:02 2,4 C 84 % 1024,1 hPa 0,0 l/m 0,0 km/h (0 Bft) SO 135 -0,0 C 2,4 C
16.03.2012 03:07 2,3 C 84 % 1024,1 hPa 0,0 l/m 0,0 km/h (0 Bft) SO 135 -0,1 C 2,3 C
16.03.2012 03:12 2,3 C 84 % 1024,1 hPa 0,0 l/m 1,1 km/h (1 Bft) SO 135 -0,1 C 2,3 C
16.03.2012 03:17 2,3 C 84 % 1024,0 hPa 0,0 l/m 0,0 km/h (0 Bft) SO 135 -0,1 C 2,3 C
16.03.2012 03:22 2,3 C 84 % 1024,0 hPa 0,0 l/m 1,1 km/h (1 Bft) SO 135 -0,1 C 2,3 C
16.03.2012 03:27 2,3 C 84 % 1024,0 hPa 0,0 l/m 0,0 km/h (0 Bft) SO 135 -0,1 C 2,3 C
16.03.2012 03:32 2,2 C 85 % 1024,0 hPa 0,0 l/m 1,4 km/h (1 Bft) SO 135 -0,1 C 2,2 C
16.03.2012 03:37 2,2 C 85 % 1023,9 hPa 0,0 l/m 2,9 km/h (1 Bft) SO 135 -0,1 C 2,2 C
16.03.2012 03:42 2,2 C 85 % 1024,0 hPa 0,0 l/m 3,2 km/h (1 Bft) SO 135 -0,1 C 2,2 C
16.03.2012 03:47 2,3 C 85 % 1023,6 hPa 0,0 l/m 5,4 km/h (1 Bft) S-SO 157 0,0 C 0,9 C
16.03.2012 03:52 2,4 C 85 % 1023,6 hPa 0,0 l/m 3,6 km/h (1 Bft) S-SO 157 0,1 C 2,4 C
16.03.2012 03:57 2,4 C 85 % 1023,7 hPa 0,0 l/m 0,0 km/h (0 Bft) SO 135 0,1 C 2,4 C
16.03.2012 04:02 2,4 C 85 % 1023,7 hPa 0,0 l/m 2,5 km/h (1 Bft) SO 135 0,1 C 2,4 C
16.03.2012 04:07 2,4 C 85 % 1023,7 hPa 0,0 l/m 2,9 km/h (1 Bft) S-SO 157 0,1 C 2,4 C
16.03.2012 04:12 2,4 C 85 % 1023,7 hPa 0,0 l/m 2,5 km/h (1 Bft) S-SO 157 0,1 C 2,4 C
16.03.2012 04:17 2,4 C 85 % 1023,4 hPa 0,0 l/m 3,2 km/h (1 Bft) SO 135 0,1 C 2,4 C
16.03.2012 04:22 2,4 C 85 % 1023,3 hPa 0,0 l/m 2,2 km/h (1 Bft) SO 135 0,1 C 2,4 C
16.03.2012 04:27 2,4 C 85 % 1023,4 hPa 0,0 l/m 4,0 km/h (1 Bft) S-SO 157 0,1 C 2,4 C
16.03.2012 04:32 2,4 C 85 % 1023,4 hPa 0,0 l/m 2,9 km/h (1 Bft) SO 135 0,1 C 2,4 C
16.03.2012 04:37 2,4 C 85 % 1023,3 hPa 0,0 l/m 5,0 km/h (1 Bft) SO 135 0,1 C 1,1 C
16.03.2012 04:42 2,4 C 85 % 1023,2 hPa 0,0 l/m 4,0 km/h (1 Bft) S-SO 157 0,1 C 2,4 C
16.03.2012 04:47 2,4 C 85 % 1023,2 hPa 0,0 l/m 0,0 km/h (0 Bft) SO 135 0,1 C 2,4 C
16.03.2012 04:52 2,3 C 85 % 1023,1 hPa 0,0 l/m 4,3 km/h (1 Bft) SO 135 0,0 C 2,3 C
16.03.2012 04:57 2,3 C 85 % 1023,0 hPa 0,0 l/m 4,3 km/h (1 Bft) SO 135 0,0 C 2,3 C
16.03.2012 05:02 2,3 C 85 % 1023,2 hPa 0,0 l/m 3,2 km/h (1 Bft) S-SO 157 0,0 C 2,3 C
16.03.2012 05:07 2,3 C 85 % 1023,0 hPa 0,0 l/m 2,2 km/h (1 Bft) SO 135 0,0 C 2,3 C
16.03.2012 05:12 2,3 C 86 % 1023,0 hPa 0,0 l/m 0,0 km/h (0 Bft) SO 135 0,2 C 2,3 C
16.03.2012 05:17 2,2 C 85 % 1022,9 hPa 0,0 l/m 0,0 km/h (0 Bft) O-SO 112 -0,1 C 2,2 C
16.03.2012 05:22 2,1 C 85 % 1023,0 hPa 0,0 l/m 0,0 km/h (0 Bft) O-SO 112 -0,2 C 2,1 C
16.03.2012 05:27 2,1 C 85 % 1022,8 hPa 0,0 l/m 0,0 km/h (0 Bft) O-SO 112 -0,2 C 2,1 C
16.03.2012 05:32 1,9 C 85 % 1022,9 hPa 0,0 l/m 0,0 km/h (0 Bft) O-SO 112 -0,3 C 1,9 C
16.03.2012 05:37 1,9 C 85 % 1022,8 hPa 0,0 l/m 0,0 km/h (0 Bft) O-SO 112 -0,3 C 1,9 C
16.03.2012 05:42 1,9 C 85 % 1022,7 hPa 0,0 l/m 0,0 km/h (0 Bft) O-SO 112 -0,3 C 1,9 C
16.03.2012 05:47 1,8 C 86 % 1022,8 hPa 0,0 l/m 1,8 km/h (1 Bft) O-SO 112 -0,3 C 1,8 C
16.03.2012 05:52 1,8 C 86 % 1022,7 hPa 0,0 l/m 0,0 km/h (0 Bft) SO 135 -0,3 C 1,8 C
16.03.2012 05:57 1,8 C 86 % 1022,5 hPa 0,0 l/m 1,8 km/h (1 Bft) O-SO 112 -0,3 C 1,8 C
16.03.2012 06:02 1,8 C 86 % 1022,7 hPa 0,0 l/m 0,0 km/h (0 Bft) O-SO 112 -0,3 C 1,8 C
16.03.2012 06:07 1,8 C 86 % 1022,6 hPa 0,0 l/m 1,1 km/h (1 Bft) O-SO 112 -0,3 C 1,8 C
16.03.2012 06:12 1,8 C 86 % 1022,8 hPa 0,0 l/m 2,5 km/h (1 Bft) SO 135 -0,3 C 1,8 C
16.03.2012 06:17 1,8 C 86 % 1022,6 hPa 0,0 l/m 2,2 km/h (1 Bft) SO 135 -0,3 C 1,8 C
16.03.2012 06:22 1,7 C 85 % 1022,7 hPa 0,0 l/m 2,2 km/h (1 Bft) SO 135 -0,5 C 1,7 C
16.03.2012 06:27 1,7 C 86 % 1022,6 hPa 0,0 l/m 1,4 km/h (1 Bft) SO 135 -0,4 C 1,7 C
16.03.2012 06:32 1,8 C 86 % 1022,7 hPa 0,0 l/m 0,0 km/h (0 Bft) SO 135 -0,3 C 1,8 C
16.03.2012 06:37 1,8 C 86 % 1022,9 hPa 0,0 l/m 1,8 km/h (1 Bft) SO 135 -0,3 C 1,8 C
16.03.2012 06:42 1,8 C 86 % 1022,8 hPa 0,0 l/m 0,0 km/h (0 Bft) SO 135 -0,3 C 1,8 C
16.03.2012 06:47 1,9 C 86 % 1022,7 hPa 0,0 l/m 1,8 km/h (1 Bft) SO 135 -0,2 C 1,9 C
16.03.2012 06:52 1,9 C 86 % 1022,7 hPa 0,0 l/m 3,2 km/h (1 Bft) SO 135 -0,2 C 1,9 C
16.03.2012 06:57 1,9 C 86 % 1022,5 hPa 0,0 l/m 0,0 km/h (0 Bft) SO 135 -0,2 C 1,9 C
16.03.2012 07:02 2,1 C 86 % 1022,6 hPa 0,0 l/m 0,0 km/h (0 Bft) SO 135 0,0 C 2,1 C
16.03.2012 07:07 2,2 C 86 % 1022,5 hPa 0,0 l/m 3,6 km/h (1 Bft) S-SO 157 0,1 C 2,2 C
16.03.2012 07:12 2,3 C 86 % 1022,6 hPa 0,0 l/m 1,1 km/h (1 Bft) SO 135 0,2 C 2,3 C
16.03.2012 07:17 2,3 C 86 % 1022,3 hPa 0,0 l/m 3,2 km/h (1 Bft) SO 135 0,2 C 2,3 C
16.03.2012 07:22 2,4 C 86 % 1022,5 hPa 0,0 l/m 1,8 km/h (1 Bft) S-SO 157 0,3 C 2,4 C
16.03.2012 07:27 2,4 C 86 % 1022,3 hPa 0,0 l/m 2,9 km/h (1 Bft) SO 135 0,3 C 2,4 C
16.03.2012 07:32 2,5 C 86 % 1022,5 hPa 0,0 l/m 1,4 km/h (1 Bft) S-SO 157 0,4 C 2,5 C
16.03.2012 07:37 2,6 C 86 % 1022,3 hPa 0,0 l/m 2,5 km/h (1 Bft) SO 135 0,5 C 2,6 C
16.03.2012 07:42 2,7 C 86 % 1022,4 hPa 0,0 l/m 1,1 km/h (1 Bft) O-SO 112 0,6 C 2,7 C
16.03.2012 07:47 2,8 C 86 % 1022,3 hPa 0,0 l/m 0,0 km/h (0 Bft) SO 135 0,7 C 2,8 C
16.03.2012 07:52 2,9 C 87 % 1022,4 hPa 0,0 l/m 8,3 km/h (2 Bft) S-SO 157 1,0 C 0,6 C
16.03.2012 07:57 3,1 C 87 % 1022,3 hPa 0,0 l/m 2,2 km/h (1 Bft) S-SO 157 1,2 C 3,1 C
16.03.2012 08:02 3,3 C 86 % 1022,2 hPa 0,0 l/m 5,8 km/h (2 Bft) S-SO 157 1,2 C 1,8 C
16.03.2012 08:07 3,4 C 86 % 1022,4 hPa 0,0 l/m 7,2 km/h (2 Bft) S-SO 157 1,3 C 1,5 C
16.03.2012 08:12 3,6 C 86 % 1022,2 hPa 0,0 l/m 6,5 km/h (2 Bft) S 180 1,5 C 1,9 C
16.03.2012 08:17 3,8 C 86 % 1022,2 hPa 0,0 l/m 8,6 km/h (2 Bft) S 180 1,7 C 1,6 C
16.03.2012 08:22 3,8 C 86 % 1022,2 hPa 0,0 l/m 6,5 km/h (2 Bft) SO 135 1,7 C 2,2 C
16.03.2012 08:27 4,1 C 86 % 1022,2 hPa 0,0 l/m 2,9 km/h (1 Bft) S-SO 157 2,0 C 4,1 C
16.03.2012 08:32 4,1 C 86 % 1022,1 hPa 0,0 l/m 0,0 km/h (0 Bft) SO 135 2,0 C 4,1 C
16.03.2012 08:37 4,4 C 86 % 1022,1 hPa 0,0 l/m 8,3 km/h (2 Bft) S 180 2,3 C 2,4 C
16.03.2012 08:42 4,5 C 85 % 1022,1 hPa 0,0 l/m 10,8 km/h (2 Bft) O-SO 112 2,2 C 1,9 C
16.03.2012 08:47 4,8 C 86 % 1022,1 hPa 0,0 l/m 5,0 km/h (1 Bft) S 180 2,7 C 3,9 C
16.03.2012 08:52 4,9 C 85 % 1022,1 hPa 0,0 l/m 5,0 km/h (1 Bft) SO 135 2,6 C 4,0 C
16.03.2012 08:57 5,1 C 85 % 1022,0 hPa 0,0 l/m 4,7 km/h (1 Bft) S-SO 157 2,8 C 4,3 C
16.03.2012 09:02 5,3 C 85 % 1022,0 hPa 0,0 l/m 0,0 km/h (0 Bft) S-SO 157 3,0 C 5,3 C
16.03.2012 09:07 5,5 C 85 % 1022,0 hPa 0,0 l/m 3,2 km/h (1 Bft) S 180 3,2 C 5,5 C
16.03.2012 09:12 5,6 C 85 % 1022,0 hPa 0,0 l/m 6,5 km/h (2 Bft) S 180 3,3 C 4,3 C
16.03.2012 09:17 5,9 C 85 % 1021,8 hPa 0,0 l/m 3,6 km/h (1 Bft) SO 135 3,6 C 5,9 C
16.03.2012 09:22 6,1 C 84 % 1021,8 hPa 0,0 l/m 3,6 km/h (1 Bft) S-SW 202 3,6 C 6,1 C
16.03.2012 09:27 6,4 C 84 % 1021,8 hPa 0,0 l/m 2,2 km/h (1 Bft) S-SO 157 3,9 C 6,4 C
16.03.2012 09:32 6,6 C 84 % 1021,8 hPa 0,0 l/m 5,0 km/h (1 Bft) SO 135 4,1 C 5,9 C
16.03.2012 09:37 6,9 C 83 % 1021,7 hPa 0,0 l/m 4,0 km/h (1 Bft) SO 135 4,2 C 6,9 C
16.03.2012 09:42 7,2 C 83 % 1021,9 hPa 0,0 l/m 3,2 km/h (1 Bft) S-SO 157 4,5 C 7,2 C
16.03.2012 09:47 7,3 C 83 % 1021,8 hPa 0,0 l/m 5,0 km/h (1 Bft) S-SO 157 4,6 C 6,7 C
16.03.2012 09:52 7,5 C 83 % 1021,8 hPa 0,0 l/m 5,0 km/h (1 Bft) S-SW 202 4,8 C 6,9 C
16.03.2012 09:57 7,8 C 82 % 1021,8 hPa 0,0 l/m 5,8 km/h (2 Bft) S-SO 157 4,9 C 7,0 C
16.03.2012 10:02 8,1 C 81 % 1021,8 hPa 0,0 l/m 6,8 km/h (2 Bft) SW 225 5,0 C 7,1 C
16.03.2012 10:07 8,3 C 81 % 1021,8 hPa 0,0 l/m 8,3 km/h (2 Bft) S 180 5,2 C 6,9 C
16.03.2012 10:12 8,5 C 81 % 1021,9 hPa 0,0 l/m 4,7 km/h (1 Bft) S-SW 202 5,4 C 8,2 C
16.03.2012 10:17 8,7 C 80 % 1022,0 hPa 0,0 l/m 4,0 km/h (1 Bft) S 180 5,4 C 8,7 C
16.03.2012 10:22 8,9 C 80 % 1021,9 hPa 0,0 l/m 7,6 km/h (2 Bft) SW 225 5,6 C 7,8 C
16.03.2012 10:27 9,1 C 80 % 1021,9 hPa 0,0 l/m 4,7 km/h (1 Bft) S 180 5,8 C 8,8 C
16.03.2012 10:32 9,3 C 79 % 1021,9 hPa 0,0 l/m 3,6 km/h (1 Bft) SW 225 5,8 C 9,3 C
16.03.2012 10:37 9,5 C 79 % 1021,9 hPa 0,0 l/m 2,2 km/h (1 Bft) W-SW 247 6,0 C 9,5 C
16.03.2012 10:42 9,6 C 78 % 1021,7 hPa 0,0 l/m 2,2 km/h (1 Bft) S-SO 157 6,0 C 9,6 C
16.03.2012 10:47 9,9 C 78 % 1021,7 hPa 0,0 l/m 2,2 km/h (1 Bft) SO 135 6,2 C 9,9 C
16.03.2012 10:52 10,1 C 78 % 1021,7 hPa 0,0 l/m 5,0 km/h (1 Bft) SW 225 6,4 C 10,1 C
16.03.2012 10:57 10,4 C 78 % 1021,6 hPa 0,0 l/m 4,7 km/h (1 Bft) W 270 6,7 C 10,4 C
16.03.2012 11:02 10,7 C 76 % 1021,5 hPa 0,0 l/m 1,4 km/h (1 Bft) S 180 6,6 C 10,7 C
16.03.2012 11:07 11,1 C 75 % 1021,5 hPa 0,0 l/m 4,0 km/h (1 Bft) W-SW 247 6,8 C 11,1 C
16.03.2012 11:12 11,4 C 74 % 1021,6 hPa 0,0 l/m 8,3 km/h (2 Bft) S 180 6,9 C 11,4 C
16.03.2012 11:17 11,6 C 73 % 1021,5 hPa 0,0 l/m 4,3 km/h (1 Bft) S-SW 202 6,9 C 11,6 C
16.03.2012 11:22 11,9 C 72 % 1021,5 hPa 0,0 l/m 4,7 km/h (1 Bft) W-SW 247 7,0 C 11,9 C
16.03.2012 11:27 12,1 C 71 % 1021,4 hPa 0,0 l/m 9,0 km/h (2 Bft) W-SW 247 7,0 C 12,1 C
16.03.2012 11:32 12,4 C 69 % 1021,5 hPa 0,0 l/m 7,2 km/h (2 Bft) W 270 6,9 C 12,4 C
16.03.2012 11:37 12,5 C 69 % 1021,4 hPa 0,0 l/m 9,4 km/h (2 Bft) SW 225 7,0 C 12,5 C
16.03.2012 11:42 12,8 C 68 % 1021,4 hPa 0,0 l/m 8,6 km/h (2 Bft) W 270 7,0 C 12,8 C
16.03.2012 11:47 12,9 C 67 % 1021,5 hPa 0,0 l/m 8,6 km/h (2 Bft) W-SW 247 6,9 C 12,9 C
16.03.2012 11:52 13,1 C 67 % 1021,5 hPa 0,0 l/m 6,1 km/h (2 Bft) SW 225 7,1 C 13,1 C
16.03.2012 11:57 13,3 C 65 % 1021,2 hPa 0,0 l/m 13,7 km/h (3 Bft) W 270 6,9 C 13,3 C
16.03.2012 12:02 13,5 C 64 % 1021,3 hPa 0,0 l/m 8,6 km/h (2 Bft) W-SW 247 6,8 C 13,5 C
16.03.2012 12:07 13,8 C 64 % 1021,3 hPa 0,0 l/m 8,3 km/h (2 Bft) SW 225 7,1 C 13,8 C
16.03.2012 12:12 13,9 C 64 % 1021,1 hPa 0,0 l/m 7,9 km/h (2 Bft) SW 225 7,2 C 13,9 C
16.03.2012 12:17 14,1 C 63 % 1021,1 hPa 0,0 l/m 13,0 km/h (3 Bft) S 180 7,2 C 14,1 C
16.03.2012 12:22 14,3 C 62 % 1021,0 hPa 0,0 l/m 12,6 km/h (3 Bft) SW 225 7,1 C 14,3 C
16.03.2012 12:27 14,4 C 61 % 1021,0 hPa 0,0 l/m 9,7 km/h (2 Bft) W-SW 247 7,0 C 14,4 C
16.03.2012 12:32 14,7 C 61 % 1020,9 hPa 0,0 l/m 7,2 km/h (2 Bft) S-SO 157 7,3 C 14,7 C
16.03.2012 12:37 14,9 C 59 % 1020,9 hPa 0,0 l/m 4,3 km/h (1 Bft) S-SW 202 7,0 C 14,9 C
16.03.2012 12:42 14,9 C 59 % 1020,9 hPa 0,0 l/m 7,6 km/h (2 Bft) SW 225 7,0 C 14,9 C
16.03.2012 12:47 15,1 C 58 % 1021,0 hPa 0,0 l/m 10,1 km/h (2 Bft) S-SW 202 6,9 C 15,1 C
16.03.2012 12:52 15,3 C 57 % 1020,7 hPa 0,0 l/m 16,9 km/h (3 Bft) S-SW 202 6,8 C 15,3 C
16.03.2012 12:57 15,4 C 57 % 1020,7 hPa 0,0 l/m 6,5 km/h (2 Bft) W 270 6,9 C 15,4 C
16.03.2012 13:02 15,8 C 56 % 1020,6 hPa 0,0 l/m 16,9 km/h (3 Bft) SW 225 7,0 C 15,8 C
16.03.2012 13:07 15,9 C 55 % 1020,6 hPa 0,0 l/m 7,6 km/h (2 Bft) S-SW 202 6,9 C 15,9 C
16.03.2012 13:12 16,1 C 54 % 1020,5 hPa 0,0 l/m 19,4 km/h (3 Bft) W-SW 247 6,8 C 16,1 C
16.03.2012 13:17 16,3 C 54 % 1020,4 hPa 0,0 l/m 5,8 km/h (2 Bft) W 270 7,0 C 16,3 C
16.03.2012 13:22 16,4 C 54 % 1020,4 hPa 0,0 l/m 15,1 km/h (3 Bft) W 270 7,1 C 16,4 C
16.03.2012 13:27 16,6 C 52 % 1020,3 hPa 0,0 l/m 9,7 km/h (2 Bft) W-SW 247 6,7 C 16,6 C
16.03.2012 13:32 16,8 C 51 % 1020,3 hPa 0,0 l/m 18,4 km/h (3 Bft) W-SW 247 6,6 C 16,8 C
16.03.2012 13:37 16,9 C 50 % 1020,2 hPa 0,0 l/m 8,6 km/h (2 Bft) W 270 6,4 C 16,9 C
16.03.2012 13:42 17,0 C 51 % 1020,1 hPa 0,0 l/m 9,0 km/h (2 Bft) W-SW 247 6,8 C 17,0 C
16.03.2012 13:47 17,2 C 51 % 1020,1 hPa 0,0 l/m 14,8 km/h (3 Bft) S 180 7,0 C 17,2 C
16.03.2012 13:52 17,3 C 50 % 1019,9 hPa 0,0 l/m 5,4 km/h (1 Bft) SW 225 6,8 C 17,3 C
16.03.2012 13:57 17,5 C 50 % 1019,9 hPa 0,0 l/m 14,8 km/h (3 Bft) SW 225 7,0 C 17,5 C
16.03.2012 14:02 17,5 C 49 % 1020,1 hPa 0,0 l/m 6,8 km/h (2 Bft) W 270 6,7 C 17,5 C
16.03.2012 14:07 17,6 C 49 % 1020,0 hPa 0,0 l/m 16,2 km/h (3 Bft) W-SW 247 6,8 C 17,6 C
16.03.2012 14:12 17,7 C 49 % 1019,9 hPa 0,0 l/m 12,6 km/h (3 Bft) W-SW 247 6,9 C 17,7 C
16.03.2012 14:17 17,8 C 49 % 1019,8 hPa 0,0 l/m 11,2 km/h (2 Bft) W 270 6,9 C 17,8 C
16.03.2012 14:22 17,9 C 48 % 1019,7 hPa 0,0 l/m 6,8 km/h (2 Bft) SW 225 6,7 C 17,9 C
16.03.2012 14:27 18,1 C 48 % 1019,7 hPa 0,0 l/m 12,2 km/h (2 Bft) NW 315 6,9 C 18,1 C
16.03.2012 14:32 18,1 C 48 % 1019,7 hPa 0,0 l/m 5,4 km/h (1 Bft) W 270 6,9 C 18,1 C
16.03.2012 14:37 18,2 C 47 % 1019,5 hPa 0,0 l/m 3,2 km/h (1 Bft) W-NW 292 6,7 C 18,2 C
16.03.2012 14:42 18,4 C 47 % 1019,6 hPa 0,0 l/m 14,8 km/h (3 Bft) W 270 6,9 C 18,4 C
16.03.2012 14:47 18,5 C 47 % 1019,4 hPa 0,0 l/m 8,3 km/h (2 Bft) W-NW 292 7,0 C 18,5 C
16.03.2012 14:52 18,6 C 46 % 1019,4 hPa 0,0 l/m 8,6 km/h (2 Bft) SW 225 6,8 C 18,6 C
16.03.2012 14:57 18,6 C 45 % 1019,3 hPa 0,0 l/m 11,5 km/h (2 Bft) W-SW 247 6,4 C 18,6 C
16.03.2012 15:02 18,6 C 46 % 1019,3 hPa 0,0 l/m 4,0 km/h (1 Bft) W-SW 247 6,8 C 18,6 C
16.03.2012 15:07 18,6 C 46 % 1019,2 hPa 0,0 l/m 6,5 km/h (2 Bft) SW 225 6,8 C 18,6 C
16.03.2012 15:12 18,7 C 45 % 1019,3 hPa 0,0 l/m 19,1 km/h (3 Bft) W-SW 247 6,5 C 18,7 C
16.03.2012 15:17 18,8 C 45 % 1019,2 hPa 0,0 l/m 5,4 km/h (1 Bft) W-NW 292 6,6 C 18,8 C
16.03.2012 15:22 18,8 C 45 % 1019,3 hPa 0,0 l/m 14,0 km/h (3 Bft) W 270 6,6 C 18,8 C
16.03.2012 15:27 18,8 C 45 % 1019,2 hPa 0,0 l/m 9,0 km/h (2 Bft) S-SW 202 6,6 C 18,8 C
16.03.2012 15:32 18,8 C 45 % 1019,2 hPa 0,0 l/m 4,7 km/h (1 Bft) W-SW 247 6,6 C 18,8 C
16.03.2012 15:37 18,8 C 45 % 1019,2 hPa 0,0 l/m 6,8 km/h (2 Bft) W 270 6,6 C 18,8 C
16.03.2012 15:42 18,7 C 45 % 1019,2 hPa 0,0 l/m 8,6 km/h (2 Bft) S 180 6,5 C 18,7 C
16.03.2012 15:47 18,6 C 45 % 1019,2 hPa 0,0 l/m 7,9 km/h (2 Bft) W 270 6,4 C 18,6 C
16.03.2012 15:52 18,5 C 45 % 1019,1 hPa 0,0 l/m 5,4 km/h (1 Bft) W-SW 247 6,3 C 18,5 C
16.03.2012 15:57 18,4 C 45 % 1018,9 hPa 0,0 l/m 15,8 km/h (3 Bft) W 270 6,3 C 18,4 C
16.03.2012 16:02 18,3 C 46 % 1019,0 hPa 0,0 l/m 6,1 km/h (2 Bft) W-SW 247 6,5 C 18,3 C
16.03.2012 16:07 18,4 C 46 % 1019,1 hPa 0,0 l/m 5,8 km/h (2 Bft) W 270 6,6 C 18,4 C
16.03.2012 16:12 18,4 C 46 % 1019,0 hPa 0,0 l/m 10,4 km/h (2 Bft) W-SW 247 6,6 C 18,4 C
16.03.2012 16:17 18,4 C 46 % 1018,9 hPa 0,0 l/m 6,5 km/h (2 Bft) S-SW 202 6,6 C 18,4 C
16.03.2012 16:22 18,3 C 46 % 1018,8 hPa 0,0 l/m 6,1 km/h (2 Bft) W 270 6,5 C 18,3 C
16.03.2012 16:27 18,3 C 46 % 1018,8 hPa 0,0 l/m 6,8 km/h (2 Bft) W-SW 247 6,5 C 18,3 C
16.03.2012 16:32 18,2 C 47 % 1018,7 hPa 0,0 l/m 11,9 km/h (2 Bft) SW 225 6,7 C 18,2 C
16.03.2012 16:37 18,1 C 47 % 1018,8 hPa 0,0 l/m 6,1 km/h (2 Bft) W 270 6,6 C 18,1 C
16.03.2012 16:42 18,1 C 47 % 1018,8 hPa 0,0 l/m 4,0 km/h (1 Bft) W 270 6,6 C 18,1 C
16.03.2012 16:47 18,0 C 47 % 1018,8 hPa 0,0 l/m 6,1 km/h (2 Bft) SW 225 6,5 C 18,0 C
16.03.2012 16:52 17,9 C 48 % 1018,7 hPa 0,0 l/m 4,0 km/h (1 Bft) SW 225 6,7 C 17,9 C
16.03.2012 16:57 17,8 C 48 % 1018,5 hPa 0,0 l/m 7,6 km/h (2 Bft) W-SW 247 6,6 C 17,8 C
16.03.2012 17:02 17,8 C 48 % 1018,5 hPa 0,0 l/m 6,8 km/h (2 Bft) W-SW 247 6,6 C 17,8 C
16.03.2012 17:07 17,6 C 48 % 1018,5 hPa 0,0 l/m 5,4 km/h (1 Bft) W-SW 247 6,5 C 17,6 C
16.03.2012 17:12 17,5 C 49 % 1018,6 hPa 0,0 l/m 5,4 km/h (1 Bft) W-SW 247 6,7 C 17,5 C
16.03.2012 17:17 17,4 C 49 % 1018,5 hPa 0,0 l/m 0,0 km/h (0 Bft) SW 225 6,6 C 17,4 C
16.03.2012 17:22 17,3 C 50 % 1018,6 hPa 0,0 l/m 2,5 km/h (1 Bft) S-SW 202 6,8 C 17,3 C
16.03.2012 17:27 17,1 C 50 % 1018,6 hPa 0,0 l/m 4,0 km/h (1 Bft) S-SW 202 6,6 C 17,1 C
16.03.2012 17:32 16,9 C 51 % 1018,6 hPa 0,0 l/m 3,2 km/h (1 Bft) W-SW 247 6,7 C 16,9 C
16.03.2012 17:37 16,8 C 50 % 1018,6 hPa 0,0 l/m 4,3 km/h (1 Bft) SW 225 6,3 C 16,8 C
16.03.2012 17:42 16,7 C 51 % 1018,5 hPa 0,0 l/m 2,5 km/h (1 Bft) W-SW 247 6,5 C 16,7 C
16.03.2012 17:47 16,5 C 51 % 1018,6 hPa 0,0 l/m 3,6 km/h (1 Bft) W-SW 247 6,3 C 16,5 C
16.03.2012 17:52 16,3 C 52 % 1018,4 hPa 0,0 l/m 0,0 km/h (0 Bft) S-SW 202 6,4 C 16,3 C
16.03.2012 17:57 16,2 C 52 % 1018,4 hPa 0,0 l/m 3,2 km/h (1 Bft) S-SW 202 6,3 C 16,2 C
16.03.2012 18:02 15,9 C 53 % 1018,2 hPa 0,0 l/m 2,2 km/h (1 Bft) SW 225 6,3 C 15,9 C
16.03.2012 18:07 15,8 C 53 % 1018,5 hPa 0,0 l/m 0,0 km/h (0 Bft) SW 225 6,2 C 15,8 C
16.03.2012 18:12 15,6 C 54 % 1018,3 hPa 0,0 l/m 1,8 km/h (1 Bft) SW 225 6,3 C 15,6 C
16.03.2012 18:17 15,4 C 54 % 1018,4 hPa 0,0 l/m 2,5 km/h (1 Bft) W-SW 247 6,1 C 15,4 C
16.03.2012 18:22 15,1 C 55 % 1018,3 hPa 0,0 l/m 2,5 km/h (1 Bft) W-SW 247 6,1 C 15,1 C
16.03.2012 18:27 14,9 C 55 % 1018,2 hPa 0,0 l/m 4,0 km/h (1 Bft) W-SW 247 5,9 C 14,9 C
16.03.2012 18:32 14,8 C 56 % 1018,5 hPa 0,0 l/m 0,0 km/h (0 Bft) W-SW 247 6,1 C 14,8 C
16.03.2012 18:37 14,4 C 56 % 1018,4 hPa 0,0 l/m 2,2 km/h (1 Bft) SW 225 5,7 C 14,4 C
16.03.2012 18:42 14,2 C 56 % 1018,3 hPa 0,0 l/m 1,8 km/h (1 Bft) SW 225 5,6 C 14,2 C
16.03.2012 18:47 13,9 C 57 % 1018,4 hPa 0,0 l/m 0,0 km/h (0 Bft) S-SW 202 5,5 C 13,9 C
16.03.2012 18:52 13,6 C 58 % 1018,4 hPa 0,0 l/m 0,0 km/h (0 Bft) S 180 5,5 C 13,6 C
16.03.2012 18:57 13,5 C 58 % 1018,3 hPa 0,0 l/m 0,0 km/h (0 Bft) S 180 5,4 C 13,5 C
16.03.2012 19:02 13,3 C 59 % 1018,3 hPa 0,0 l/m 0,0 km/h (0 Bft) S 180 5,5 C 13,3 C
16.03.2012 19:07 13,1 C 60 % 1018,3 hPa 0,0 l/m 1,4 km/h (1 Bft) S-SO 157 5,5 C 13,1 C
16.03.2012 19:12 12,9 C 60 % 1018,3 hPa 0,0 l/m 1,4 km/h (1 Bft) S-SO 157 5,3 C 12,9 C
16.03.2012 19:17 12,8 C 60 % 1018,3 hPa 0,0 l/m 0,0 km/h (0 Bft) S-SO 157 5,2 C 12,8 C
16.03.2012 19:22 12,6 C 60 % 1018,3 hPa 0,0 l/m 0,0 km/h (0 Bft) S-SO 157 5,0 C 12,6 C
16.03.2012 19:27 12,4 C 61 % 1018,6 hPa 0,0 l/m 0,0 km/h (0 Bft) S-SO 157 5,1 C 12,4 C
16.03.2012 19:32 12,3 C 62 % 1018,5 hPa 0,0 l/m 0,0 km/h (0 Bft) S-SO 157 5,2 C 12,3 C
16.03.2012 19:37 12,1 C 62 % 1018,5 hPa 0,0 l/m 1,4 km/h (1 Bft) S-SO 157 5,0 C 12,1 C
16.03.2012 19:42 11,9 C 63 % 1018,5 hPa 0,0 l/m 1,4 km/h (1 Bft) S-SO 157 5,1 C 11,9 C
16.03.2012 19:47 11,8 C 63 % 1018,4 hPa 0,0 l/m 0,0 km/h (0 Bft) S-SO 157 5,0 C 11,8 C
16.03.2012 19:52 11,7 C 63 % 1018,3 hPa 0,0 l/m 0,0 km/h (0 Bft) S-SO 157 4,9 C 11,7 C
16.03.2012 19:57 11,6 C 63 % 1018,3 hPa 0,0 l/m 0,0 km/h (0 Bft) S-SO 157 4,8 C 11,6 C
16.03.2012 20:02 11,5 C 64 % 1018,4 hPa 0,0 l/m 1,8 km/h (1 Bft) S-SO 157 4,9 C 11,5 C
16.03.2012 20:07 11,4 C 64 % 1018,2 hPa 0,0 l/m 2,5 km/h (1 Bft) S-SO 157 4,8 C 11,4 C
16.03.2012 20:12 11,3 C 65 % 1018,3 hPa 0,0 l/m 3,2 km/h (1 Bft) S 180 5,0 C 11,3 C
16.03.2012 20:17 11,1 C 65 % 1018,4 hPa 0,0 l/m 3,2 km/h (1 Bft) S-SO 157 4,8 C 11,1 C
16.03.2012 20:22 11,0 C 65 % 1018,3 hPa 0,0 l/m 0,0 km/h (0 Bft) S-SO 157 4,7 C 11,0 C
16.03.2012 20:27 10,9 C 66 % 1018,5 hPa 0,0 l/m 2,5 km/h (1 Bft) S-SO 157 4,8 C 10,9 C
16.03.2012 20:32 10,9 C 66 % 1018,5 hPa 0,0 l/m 0,0 km/h (0 Bft) S-SO 157 4,8 C 10,9 C
16.03.2012 20:37 10,8 C 66 % 1018,4 hPa 0,0 l/m 1,1 km/h (1 Bft) S-SO 157 4,7 C 10,8 C
16.03.2012 20:42 10,7 C 66 % 1018,5 hPa 0,0 l/m 0,0 km/h (0 Bft) S-SO 157 4,6 C 10,7 C
16.03.2012 20:47 10,5 C 66 % 1018,5 hPa 0,0 l/m 1,1 km/h (1 Bft) S-SO 157 4,4 C 10,5 C
16.03.2012 20:52 10,4 C 67 % 1018,5 hPa 0,0 l/m 1,8 km/h (1 Bft) S-SO 157 4,5 C 10,4 C
16.03.2012 20:57 10,3 C 67 % 1018,4 hPa 0,0 l/m 0,0 km/h (0 Bft) S-SO 157 4,4 C 10,3 C
16.03.2012 21:02 10,1 C 68 % 1018,5 hPa 0,0 l/m 0,0 km/h (0 Bft) S-SO 157 4,5 C 10,1 C
16.03.2012 21:07 10,1 C 68 % 1018,3 hPa 0,0 l/m 1,4 km/h (1 Bft) S-SO 157 4,5 C 10,1 C
16.03.2012 21:12 9,9 C 68 % 1018,5 hPa 0,0 l/m 0,0 km/h (0 Bft) S-SO 157 4,3 C 9,9 C
16.03.2012 21:17 9,9 C 68 % 1018,6 hPa 0,0 l/m 0,0 km/h (0 Bft) S-SO 157 4,3 C 9,9 C
16.03.2012 21:22 9,9 C 68 % 1018,5 hPa 0,0 l/m 0,0 km/h (0 Bft) S-SO 157 4,3 C 9,9 C
16.03.2012 21:27 9,8 C 69 % 1018,5 hPa 0,0 l/m 0,0 km/h (0 Bft) S-SO 157 4,4 C 9,8 C
16.03.2012 21:32 9,8 C 69 % 1018,5 hPa 0,0 l/m 0,0 km/h (0 Bft) S-SO 157 4,4 C 9,8 C
16.03.2012 21:37 9,6 C 69 % 1018,5 hPa 0,0 l/m 0,0 km/h (0 Bft) S-SO 157 4,2 C 9,6 C
16.03.2012 21:42 9,5 C 70 % 1018,6 hPa 0,0 l/m 0,0 km/h (0 Bft) S-SO 157 4,3 C 9,5 C
16.03.2012 21:47 9,4 C 70 % 1018,6 hPa 0,0 l/m 0,0 km/h (0 Bft) S-SO 157 4,2 C 9,4 C
16.03.2012 21:52 9,3 C 70 % 1018,7 hPa 0,0 l/m 0,0 km/h (0 Bft) S-SO 157 4,1 C 9,3 C
16.03.2012 21:57 9,2 C 70 % 1018,6 hPa 0,0 l/m 0,0 km/h (0 Bft) S-SO 157 4,0 C 9,2 C
16.03.2012 22:02 9,2 C 70 % 1018,6 hPa 0,0 l/m 0,0 km/h (0 Bft) S-SO 157 4,0 C 9,2 C
16.03.2012 22:07 9,1 C 71 % 1018,7 hPa 0,0 l/m 0,0 km/h (0 Bft) S-SO 157 4,1 C 9,1 C
16.03.2012 22:12 8,9 C 71 % 1018,6 hPa 0,0 l/m 1,1 km/h (1 Bft) S-SO 157 3,9 C 8,9 C
16.03.2012 22:17 8,9 C 72 % 1018,8 hPa 0,0 l/m 0,0 km/h (0 Bft) S-SW 202 4,1 C 8,9 C
16.03.2012 22:22 8,8 C 72 % 1018,7 hPa 0,0 l/m 0,0 km/h (0 Bft) S-SW 202 4,0 C 8,8 C
16.03.2012 22:27 8,8 C 72 % 1018,7 hPa 0,0 l/m 0,0 km/h (0 Bft) S-SW 202 4,0 C 8,8 C
16.03.2012 22:32 8,7 C 72 % 1018,5 hPa 0,0 l/m 2,2 km/h (1 Bft) SW 225 3,9 C 8,7 C
16.03.2012 22:37 8,7 C 72 % 1018,6 hPa 0,0 l/m 1,1 km/h (1 Bft) S-SW 202 3,9 C 8,7 C
16.03.2012 22:42 8,6 C 72 % 1018,6 hPa 0,0 l/m 0,0 km/h (0 Bft) SW 225 3,8 C 8,6 C
16.03.2012 22:47 8,6 C 72 % 1018,6 hPa 0,0 l/m 0,0 km/h (0 Bft) SW 225 3,8 C 8,6 C
16.03.2012 22:52 8,4 C 73 % 1018,7 hPa 0,0 l/m 0,0 km/h (0 Bft) SW 225 3,8 C 8,4 C
16.03.2012 22:57 8,3 C 73 % 1018,6 hPa 0,0 l/m 0,0 km/h (0 Bft) NW 315 3,8 C 8,3 C
16.03.2012 23:02 8,2 C 74 % 1018,7 hPa 0,0 l/m 0,0 km/h (0 Bft) NW 315 3,8 C 8,2 C
16.03.2012 23:07 8,1 C 74 % 1018,7 hPa 0,0 l/m 0,0 km/h (0 Bft) W 270 3,8 C 8,1 C
16.03.2012 23:12 8,1 C 74 % 1018,8 hPa 0,0 l/m 1,1 km/h (1 Bft) W 270 3,8 C 8,1 C
16.03.2012 23:17 8,0 C 74 % 1018,9 hPa 0,0 l/m 0,0 km/h (0 Bft) W 270 3,7 C 8,0 C
16.03.2012 23:22 7,9 C 74 % 1018,8 hPa 0,0 l/m 0,0 km/h (0 Bft) W 270 3,6 C 7,9 C
16.03.2012 23:27 7,9 C 74 % 1018,9 hPa 0,0 l/m 0,0 km/h (0 Bft) W 270 3,6 C 7,9 C
16.03.2012 23:32 7,9 C 74 % 1018,8 hPa 0,0 l/m 0,0 km/h (0 Bft) W-NW 292 3,6 C 7,9 C
16.03.2012 23:37 7,9 C 75 % 1019,0 hPa 0,0 l/m 2,5 km/h (1 Bft) W-NW 292 3,7 C 7,9 C
16.03.2012 23:42 7,9 C 75 % 1018,6 hPa 0,0 l/m 0,0 km/h (0 Bft) W 270 3,7 C 7,9 C
16.03.2012 23:47 8,1 C 75 % 1018,8 hPa 0,0 l/m 1,1 km/h (1 Bft) W 270 3,9 C 8,1 C
16.03.2012 23:52 8,1 C 75 % 1018,8 hPa 0,0 l/m 1,4 km/h (1 Bft) W 270 3,9 C 8,1 C
16.03.2012 23:57 8,1 C 75 % 1018,9 hPa 0,0 l/m 0,0 km/h (0 Bft) W 270 3,9 C 8,1 C
_ Min-Zeit 06:22 14:57 18:02 - 00:02 - - 06:22 07:52
Minimum _ 1,7 C 45 % 1018,2 hPa - 0,0 km/h (0 Bft) - - -0,5 C 0,6 C
_ Max-Zeit 15:17 07:52 00:02 00:02 13:12 - - 12:32 15:17
Maximum _ 18,8 C 87 % 1025,8 hPa 0,0 l/m 19,4 km/h
W-SW (3 Bft)
- - 7,3 C 18,8 C
Durchschnitt _ 9,2 C 71 % 1021,1 hPa #0,0 l/m 3,6 km/h (1 Bft) SO - 3,7 C 9,1 C
(c) by David Heller